Hampstead, OH

7:38 AM EDT on March 29, 2017 (GMT -0400)
Oak Creek | | Change Station

Elev 1004 ft 39.67 °N, 84.13 °W | Updated 5 days ago

Mostly Cloudy
Mostly Cloudy
51.6 °F
Feels Like 51.6 °F
N
1.7
Wind Variable Wind from North
Gusts 3.1 mph

Today
High -- | Low -- °F
--% Chance of Precip.
Yesterday
High -- | Low -- °F
Precip. -- in
Pressure 30.18 in
Visibility 10.0 miles
Clouds Mostly Cloudy 1800 ft
Dew Point -3.1 °F
Humidity 10%
Rainfall in
Snow Depth Not available.
7:25 AM 7:57 PM
Waxing Crescent, 3% visible
METAR KMGY 291053Z AUTO 07006KT 10SM BKN018 06/03 A3017 RMK AO2 SLP219 T00560028
Pressure 30.18 in
Visibility 10.0 miles
Clouds Mostly Cloudy 1800 ft
Dew Point -3.1 °F
Humidity 10%
Rainfall in
Snow Depth Not available.
7:25 AM 7:57 PM
Waxing Crescent, 3% visible
METAR KMGY 291053Z AUTO 07006KT 10SM BKN018 06/03 A3017 RMK AO2 SLP219 T00560028

Get Severe Weather Alerts

Thanks for signing up!

Be on the lookout for a verification email in your inbox.

You'll start receiving the daily forecast at 8 AM.

×

10-Day Weather Forecast

Almanac

Astronomy

Mar. 29, 2017 Rise Set
Actual Time
Civil Twilight
Nautical Twilight
Astronomical Twilight
Moon
Length of Visible Light
Length of Day
Tomorrow will be .
, % of the Moon is Illuminated

Today's Extremes

State Highs State Lows

Community

WunderPhotos

Upload Photos

1,962,540 photos uploaded!

WunderBlog® & News

Nearby

Air Quality

  Air Quality AQ Index Pollutant
Not available.

Snow Depth

Station Depth Elevation

Earthquake Activity

City Distance Mag. Time & Date
Minimum magnitude displayed is 2.5.

Earthquake Activity

City Distance Mag. Time & Date
Minimum magnitude displayed is 2.5.

Coastal Water Temperatures

Place Temperature

Stations

Nearby Weather Stations

Station Location Temp. Windchill Dew Point Humidity Wind Precip. Elev Updated Type
                   

Watches & Warnings

There are currently no watches in effect.